createdAt,value
2018-08-07T00:00:14.917Z,23.40
2018-08-07T00:02:42.433Z,23.40
2018-08-07T00:05:09.872Z,23.40
2018-08-07T00:07:37.432Z,23.50
2018-08-07T00:10:05.830Z,23.40
2018-08-07T00:12:33.270Z,23.40
2018-08-07T00:15:00.693Z,23.40
2018-08-07T00:17:28.141Z,23.30
2018-08-07T00:19:55.563Z,23.30
2018-08-07T00:22:23.002Z,23.30
2018-08-07T00:24:50.443Z,23.30
2018-08-07T00:27:17.892Z,23.30
2018-08-07T00:29:45.316Z,23.20
2018-08-07T00:34:40.078Z,23.20
2018-08-07T00:37:07.505Z,23.20
2018-08-07T00:39:34.944Z,23.10
2018-08-07T00:42:02.381Z,23.00
2018-08-07T00:44:29.807Z,23.00
2018-08-07T00:46:57.241Z,23.00
2018-08-07T00:49:24.732Z,23.00
2018-08-07T00:51:52.168Z,22.90
2018-08-07T00:54:19.633Z,22.90
2018-08-07T00:56:47.054Z,22.70
2018-08-07T00:59:14.502Z,22.60
2018-08-07T01:01:41.925Z,22.50
2018-08-07T01:04:09.402Z,22.50
2018-08-07T01:06:36.905Z,22.50
2018-08-07T01:09:06.029Z,22.50
2018-08-07T01:11:33.469Z,22.40
2018-08-07T01:14:00.891Z,22.40
2018-08-07T01:16:28.362Z,22.40
2018-08-07T01:18:55.804Z,22.40
2018-08-07T01:21:23.253Z,22.30
2018-08-07T01:23:50.936Z,22.10
2018-08-07T01:26:18.417Z,22.00
2018-08-07T01:28:45.828Z,22.00
2018-08-07T01:31:13.304Z,22.00
2018-08-07T01:33:40.728Z,21.90
2018-08-07T01:36:08.188Z,21.80
2018-08-07T01:38:35.604Z,21.70
2018-08-07T01:41:03.188Z,21.70
2018-08-07T01:43:30.612Z,21.80
2018-08-07T01:45:58.081Z,21.80
2018-08-07T01:48:25.497Z,21.90
2018-08-07T01:50:53.019Z,21.50
2018-08-07T01:53:20.513Z,21.40
2018-08-07T01:55:48.005Z,21.20
2018-08-07T01:58:15.457Z,21.10
2018-08-07T02:00:42.901Z,21.20
2018-08-07T02:03:10.337Z,21.20
2018-08-07T02:05:37.866Z,21.20
2018-08-07T02:08:05.306Z,21.30
2018-08-07T02:10:32.746Z,21.20
2018-08-07T02:13:00.169Z,21.20
2018-08-07T02:15:27.612Z,21.30
2018-08-07T02:17:55.049Z,21.30
2018-08-07T02:20:22.487Z,21.30
2018-08-07T02:22:50.036Z,21.30
2018-08-07T02:25:18.697Z,21.20
2018-08-07T02:27:46.552Z,21.20
2018-08-07T02:30:14.493Z,21.30
2018-08-07T02:32:41.993Z,21.30
2018-08-07T02:37:38.305Z,21.40
2018-08-07T02:40:06.050Z,21.30
2018-08-07T02:42:33.494Z,21.30
2018-08-07T02:45:00.921Z,21.10
2018-08-07T02:47:28.353Z,20.90
2018-08-07T02:49:55.776Z,21.00
2018-08-07T02:52:23.245Z,20.90
2018-08-07T02:54:50.673Z,20.90
2018-08-07T02:57:18.100Z,20.90
2018-08-07T02:59:45.545Z,20.90
2018-08-07T03:02:12.974Z,20.90
2018-08-07T03:04:40.765Z,20.90
2018-08-07T03:07:08.392Z,20.70
2018-08-07T03:09:35.879Z,20.80
2018-08-07T03:12:03.652Z,20.70
2018-08-07T03:14:31.252Z,20.80
2018-08-07T03:16:58.685Z,20.70
2018-08-07T03:19:26.120Z,20.70
2018-08-07T03:21:53.695Z,20.70
2018-08-07T03:24:21.282Z,20.70
2018-08-07T03:26:48.718Z,20.70
2018-08-07T03:29:16.143Z,20.60
2018-08-07T03:31:43.658Z,20.70
2018-08-07T03:34:11.204Z,20.60
2018-08-07T03:36:38.654Z,20.70
2018-08-07T03:39:07.480Z,20.60
2018-08-07T03:41:34.955Z,20.60
2018-08-07T03:44:02.345Z,20.50
2018-08-07T03:46:29.776Z,20.50
2018-08-07T03:48:57.209Z,20.50
2018-08-07T03:51:24.649Z,20.60
2018-08-07T03:53:52.089Z,20.60
2018-08-07T03:56:19.591Z,20.40
2018-08-07T03:58:47.061Z,20.50
2018-08-07T04:01:14.497Z,20.40
2018-08-07T04:03:41.962Z,20.40
2018-08-07T04:06:09.384Z,20.40
2018-08-07T04:08:36.832Z,20.50
2018-08-07T04:11:04.257Z,20.50
2018-08-07T04:15:59.223Z,20.40
2018-08-07T04:18:26.675Z,20.30
2018-08-07T04:20:54.237Z,20.30
2018-08-07T04:23:21.798Z,20.20
2018-08-07T04:25:49.221Z,20.00
2018-08-07T04:28:16.649Z,20.00
2018-08-07T04:33:11.317Z,20.20
2018-08-07T04:35:38.869Z,20.00
2018-08-07T04:38:06.458Z,20.10
2018-08-07T04:40:33.890Z,20.20
2018-08-07T04:43:01.508Z,20.00
2018-08-07T04:45:28.929Z,20.10
2018-08-07T04:47:56.385Z,20.20
2018-08-07T04:50:23.848Z,20.30
2018-08-07T04:52:51.401Z,20.40
2018-08-07T04:55:18.944Z,20.50
2018-08-07T04:57:46.508Z,20.50
2018-08-07T05:00:15.560Z,20.50
2018-08-07T05:02:43.840Z,20.70
2018-08-07T05:05:11.284Z,20.70
2018-08-07T05:07:38.904Z,20.80
2018-08-07T05:10:07.960Z,20.80
2018-08-07T05:12:35.404Z,20.80
2018-08-07T05:15:02.976Z,21.00
2018-08-07T05:17:30.449Z,21.00
2018-08-07T05:19:57.889Z,21.00
2018-08-07T05:22:25.767Z,21.10
2018-08-07T05:24:53.184Z,21.10
2018-08-07T05:27:20.716Z,21.10
2018-08-07T05:29:48.210Z,21.30
2018-08-07T05:32:15.641Z,21.40
2018-08-07T05:34:43.192Z,21.60
2018-08-07T05:37:10.468Z,21.70
2018-08-07T05:39:37.916Z,21.50
2018-08-07T05:42:05.377Z,21.60
2018-08-07T05:44:32.835Z,21.70
2018-08-07T05:47:00.288Z,21.90
2018-08-07T05:49:27.766Z,22.10
2018-08-07T05:51:55.363Z,22.30
2018-08-07T05:54:22.800Z,22.40
2018-08-07T05:56:50.260Z,22.50
2018-08-07T05:59:17.741Z,22.60
2018-08-07T06:01:45.192Z,22.80
2018-08-07T06:04:12.678Z,22.90
2018-08-07T06:06:40.309Z,22.90
2018-08-07T06:09:08.456Z,23.10
2018-08-07T06:11:35.900Z,23.20
2018-08-07T06:14:03.377Z,23.40
2018-08-07T06:16:31.332Z,23.50
2018-08-07T06:18:58.763Z,23.50
2018-08-07T06:21:26.225Z,23.60
2018-08-07T06:23:53.680Z,23.80
2018-08-07T06:26:21.157Z,24.00
2018-08-07T06:28:48.685Z,24.20
2018-08-07T06:31:16.212Z,24.30
2018-08-07T06:33:43.620Z,24.60
2018-08-07T06:36:11.061Z,24.70
2018-08-07T06:38:38.508Z,24.90
2018-08-07T06:41:06.117Z,25.00
2018-08-07T06:43:33.642Z,25.20
2018-08-07T06:46:01.072Z,25.30
2018-08-07T06:48:28.639Z,25.60
2018-08-07T06:50:56.092Z,25.70
2018-08-07T06:53:23.741Z,25.50
2018-08-07T06:55:51.229Z,25.70
2018-08-07T06:58:18.668Z,26.00
2018-08-07T07:00:46.109Z,26.40
2018-08-07T07:03:13.538Z,26.50
2018-08-07T07:05:40.984Z,26.70
2018-08-07T07:08:08.495Z,26.70
2018-08-07T07:10:35.936Z,26.90
2018-08-07T07:13:03.428Z,26.90
2018-08-07T07:15:30.880Z,26.90
2018-08-07T07:17:58.334Z,27.00
2018-08-07T07:20:25.780Z,27.10
2018-08-07T07:22:53.219Z,27.30
2018-08-07T07:25:20.653Z,27.50
2018-08-07T07:27:48.092Z,27.80
2018-08-07T07:30:16.892Z,28.10
2018-08-07T07:32:45.589Z,28.40
2018-08-07T07:35:13.344Z,28.50
2018-08-07T07:37:40.844Z,28.70
2018-08-07T07:40:08.408Z,28.90
2018-08-07T07:42:36.337Z,29.10
2018-08-07T07:45:04.408Z,29.10
2018-08-07T07:47:31.877Z,29.20
2018-08-07T07:49:59.309Z,29.20
2018-08-07T07:52:26.768Z,29.20
2018-08-07T07:54:54.208Z,29.30
2018-08-07T07:57:21.654Z,29.50
2018-08-07T07:59:49.084Z,29.60
2018-08-07T08:02:16.580Z,29.60
2018-08-07T08:04:44.037Z,29.70
2018-08-07T08:07:11.500Z,30.00
2018-08-07T08:09:38.948Z,30.30
2018-08-07T08:12:06.390Z,30.60
2018-08-07T08:14:33.852Z,30.80
2018-08-07T08:17:01.412Z,31.10
2018-08-07T08:19:28.857Z,31.40
2018-08-07T08:21:56.347Z,31.80
2018-08-07T08:24:23.973Z,32.10
2018-08-07T08:26:51.493Z,32.40
2018-08-07T08:29:19.048Z,32.40
2018-08-07T08:31:46.371Z,32.40
2018-08-07T08:34:13.821Z,32.20
2018-08-07T08:36:41.276Z,32.50
2018-08-07T08:39:09.797Z,32.60
2018-08-07T08:41:37.440Z,32.60
2018-08-07T08:44:04.876Z,32.90
2018-08-07T08:46:32.337Z,33.20
2018-08-07T08:48:59.801Z,33.40
2018-08-07T08:51:27.330Z,33.50
2018-08-07T08:53:54.810Z,33.60
2018-08-07T08:56:22.210Z,33.80
2018-08-07T08:58:49.692Z,34.20
2018-08-07T09:01:17.189Z,34.30
2018-08-07T09:03:44.661Z,34.50
2018-08-07T09:06:12.089Z,34.50
2018-08-07T09:08:39.540Z,34.50
2018-08-07T09:11:06.990Z,34.60
2018-08-07T09:13:34.564Z,34.50
2018-08-07T09:16:02.005Z,34.40
2018-08-07T09:18:29.473Z,34.60
2018-08-07T09:20:56.917Z,34.70
2018-08-07T09:23:24.363Z,35.00
2018-08-07T09:25:51.979Z,35.10
2018-08-07T09:28:19.363Z,35.10
2018-08-07T09:30:46.881Z,35.30
2018-08-07T09:33:14.363Z,35.50
2018-08-07T09:35:41.842Z,35.60
2018-08-07T09:38:09.308Z,35.70
2018-08-07T09:40:36.888Z,35.90
2018-08-07T09:43:04.602Z,36.10
2018-08-07T09:45:33.393Z,36.40
2018-08-07T09:50:28.292Z,36.60
2018-08-07T09:52:55.736Z,36.60
2018-08-07T09:55:23.161Z,36.50
2018-08-07T09:57:50.604Z,36.80
2018-08-07T10:00:24.037Z,36.80
2018-08-07T10:02:53.304Z,36.70
2018-08-07T10:05:22.701Z,36.50
2018-08-07T10:07:50.359Z,36.70
2018-08-07T10:10:18.101Z,36.70
2018-08-07T10:12:45.939Z,37.10
2018-08-07T10:15:13.564Z,37.40
2018-08-07T10:17:41.209Z,37.40
2018-08-07T10:20:09.776Z,37.60
2018-08-07T10:22:37.746Z,37.80
2018-08-07T10:25:06.132Z,38.00
2018-08-07T10:27:39.248Z,37.90
2018-08-07T10:30:08.204Z,37.80
2018-08-07T10:32:35.648Z,37.80
2018-08-07T10:35:03.141Z,37.80
2018-08-07T10:37:30.524Z,38.00
2018-08-07T10:39:57.959Z,38.20
2018-08-07T10:42:25.419Z,38.00
2018-08-07T10:44:52.860Z,37.80
2018-08-07T10:47:20.314Z,37.60
2018-08-07T10:49:47.782Z,37.80
2018-08-07T10:52:15.287Z,38.10
2018-08-07T10:54:42.681Z,38.20
2018-08-07T10:57:10.180Z,38.00
2018-08-07T10:59:37.624Z,38.10
2018-08-07T11:02:05.360Z,38.10
2018-08-07T11:04:32.888Z,38.30
2018-08-07T11:07:00.332Z,38.50
2018-08-07T11:09:27.788Z,38.60
2018-08-07T11:11:55.256Z,38.80
2018-08-07T11:14:22.697Z,38.70
2018-08-07T11:16:50.149Z,38.70
2018-08-07T11:19:17.605Z,38.50
2018-08-07T11:21:45.049Z,38.40
2018-08-07T11:24:12.497Z,38.50
2018-08-07T11:26:39.939Z,38.50
2018-08-07T11:29:07.432Z,38.70
2018-08-07T11:31:34.948Z,38.80
2018-08-07T11:34:02.399Z,38.60
2018-08-07T11:36:29.884Z,38.30
2018-08-07T11:38:57.365Z,38.30
2018-08-07T11:41:24.852Z,38.00
2018-08-07T11:43:52.385Z,38.00
2018-08-07T11:46:19.967Z,38.00
2018-08-07T11:48:47.406Z,38.10
2018-08-07T11:51:14.862Z,38.20
2018-08-07T11:53:42.542Z,38.10
2018-08-07T11:56:10.008Z,38.00
2018-08-07T11:58:37.456Z,38.00
2018-08-07T12:01:04.907Z,38.00
2018-08-07T12:03:32.441Z,37.90
2018-08-07T12:06:00.041Z,37.60
2018-08-07T12:08:27.486Z,37.60
2018-08-07T12:10:54.921Z,37.40
2018-08-07T12:13:22.384Z,37.50
2018-08-07T12:15:49.829Z,37.50
2018-08-07T12:18:17.276Z,37.20
2018-08-07T12:20:44.728Z,37.30
2018-08-07T12:23:12.212Z,37.10
2018-08-07T12:25:39.702Z,37.10
2018-08-07T12:28:07.239Z,37.00
2018-08-07T12:30:34.680Z,37.10
2018-08-07T12:33:02.134Z,37.10
2018-08-07T12:35:29.592Z,37.00
2018-08-07T12:37:57.057Z,37.00
2018-08-07T12:40:25.896Z,37.00
2018-08-07T12:42:57.109Z,37.10
2018-08-07T12:45:24.567Z,37.10
2018-08-07T12:47:52.013Z,37.00
2018-08-07T12:50:19.620Z,36.80
2018-08-07T12:52:47.629Z,36.90
2018-08-07T12:55:15.952Z,36.80
2018-08-07T12:57:43.520Z,36.70
2018-08-07T13:00:13.817Z,36.50
2018-08-07T13:02:41.268Z,36.60
2018-08-07T13:05:08.720Z,36.50
2018-08-07T13:07:36.288Z,36.40
2018-08-07T13:10:05.172Z,36.30
2018-08-07T13:12:32.606Z,36.20
2018-08-07T13:15:00.054Z,36.20
2018-08-07T13:17:27.589Z,36.20
2018-08-07T13:19:55.116Z,36.10
2018-08-07T13:22:22.557Z,36.10
2018-08-07T13:24:50.013Z,36.00
2018-08-07T13:27:17.452Z,36.00
2018-08-07T13:29:44.908Z,36.10
2018-08-07T13:32:12.381Z,36.00
2018-08-07T13:34:39.864Z,36.00
2018-08-07T13:37:07.417Z,35.90
2018-08-07T13:39:34.825Z,35.60
2018-08-07T13:42:02.316Z,35.60
2018-08-07T13:44:29.798Z,35.50
2018-08-07T13:46:57.448Z,35.40
2018-08-07T13:49:27.035Z,35.40
2018-08-07T13:51:54.753Z,35.30
2018-08-07T13:54:25.965Z,35.20
2018-08-07T13:56:53.397Z,35.10
2018-08-07T13:59:20.837Z,34.80
2018-08-07T14:01:48.445Z,34.60
2018-08-07T14:04:15.876Z,34.30
2018-08-07T14:06:43.316Z,34.20
2018-08-07T14:09:10.825Z,34.20
2018-08-07T14:11:39.368Z,34.00
2018-08-07T14:14:06.923Z,33.80
2018-08-07T14:16:34.486Z,33.60
2018-08-07T14:19:02.404Z,33.30
2018-08-07T14:21:29.920Z,33.10
2018-08-07T14:23:57.347Z,33.00
2018-08-07T14:26:24.791Z,32.80
2018-08-07T14:28:52.308Z,32.80
2018-08-07T14:31:19.664Z,32.70
2018-08-07T14:33:47.093Z,32.40
2018-08-07T14:36:14.526Z,32.30
2018-08-07T14:38:42.057Z,32.20
2018-08-07T14:41:09.485Z,32.00
2018-08-07T14:43:36.920Z,32.00
2018-08-07T14:46:04.372Z,32.00
2018-08-07T14:48:31.820Z,32.00
2018-08-07T14:50:59.305Z,31.90
2018-08-07T14:53:26.864Z,32.00
2018-08-07T14:55:54.440Z,32.00
2018-08-07T14:58:21.924Z,32.00
2018-08-07T15:00:49.632Z,32.00
2018-08-07T15:03:17.201Z,31.80
2018-08-07T15:05:44.858Z,31.70
2018-08-07T15:08:12.517Z,31.50
2018-08-07T15:10:40.089Z,31.20
2018-08-07T15:13:07.713Z,31.20
2018-08-07T15:15:35.145Z,31.10
2018-08-07T15:20:30.973Z,31.00
2018-08-07T15:22:58.639Z,31.10
2018-08-07T15:25:26.268Z,31.10
2018-08-07T15:27:53.737Z,31.00
2018-08-07T15:30:21.833Z,31.00
2018-08-07T15:32:50.013Z,31.00
2018-08-07T15:35:18.759Z,31.10
2018-08-07T15:37:46.376Z,31.10
2018-08-07T15:40:14.109Z,31.10
2018-08-07T15:42:42.707Z,31.30
2018-08-07T15:45:10.219Z,31.30
2018-08-07T15:47:37.668Z,31.40
2018-08-07T15:50:07.265Z,31.40
2018-08-07T15:52:34.839Z,31.40
2018-08-07T15:55:02.656Z,31.50
2018-08-07T15:57:30.100Z,31.60
2018-08-07T15:59:57.536Z,31.70
2018-08-07T16:02:25.097Z,31.90
2018-08-07T16:04:52.672Z,31.90
2018-08-07T16:07:20.368Z,31.90
2018-08-07T16:09:47.797Z,31.90
2018-08-07T16:14:42.565Z,32.10
2018-08-07T16:17:10.126Z,32.10
2018-08-07T16:19:37.677Z,32.20
2018-08-07T16:22:05.309Z,32.20
2018-08-07T16:24:33.844Z,32.20
2018-08-07T16:27:01.293Z,32.20
2018-08-07T16:29:28.752Z,32.20
2018-08-07T16:31:56.293Z,32.20
2018-08-07T16:34:23.863Z,32.30
2018-08-07T16:36:51.361Z,32.40
2018-08-07T16:39:18.864Z,32.40
2018-08-07T16:41:46.292Z,32.40
2018-08-07T16:44:13.729Z,32.50
2018-08-07T16:46:41.156Z,32.50
2018-08-07T16:49:08.586Z,32.50
2018-08-07T16:51:36.044Z,32.60
2018-08-07T16:54:03.788Z,32.60
2018-08-07T16:56:31.217Z,32.50
2018-08-07T16:58:58.674Z,32.60
2018-08-07T17:01:26.185Z,32.70
2018-08-07T17:03:53.680Z,32.70
2018-08-07T17:06:21.228Z,32.70
2018-08-07T17:08:48.652Z,32.70
2018-08-07T17:11:16.235Z,32.70
2018-08-07T17:13:43.697Z,32.80
2018-08-07T17:16:11.274Z,32.90
2018-08-07T17:18:38.861Z,33.00
2018-08-07T17:21:06.436Z,33.00
2018-08-07T17:23:33.920Z,33.00
2018-08-07T17:26:01.471Z,32.90
2018-08-07T17:28:29.198Z,33.00
2018-08-07T17:30:56.846Z,33.00
2018-08-07T17:33:24.393Z,33.00
2018-08-07T17:35:51.820Z,33.00
2018-08-07T17:38:19.308Z,33.10
2018-08-07T17:40:46.875Z,33.10
2018-08-07T17:43:15.100Z,33.10
2018-08-07T17:45:42.598Z,33.20
2018-08-07T17:48:10.062Z,33.10
2018-08-07T17:50:37.508Z,33.00
2018-08-07T17:53:04.981Z,33.00
2018-08-07T17:55:32.416Z,33.00
2018-08-07T17:58:00.108Z,32.90
2018-08-07T18:00:27.755Z,32.90
2018-08-07T18:02:55.228Z,32.90
2018-08-07T18:07:50.992Z,32.90
2018-08-07T18:10:19.120Z,32.90
2018-08-07T18:12:46.702Z,32.70
2018-08-07T18:15:15.389Z,32.70
2018-08-07T18:20:12.692Z,32.60
2018-08-07T18:22:40.305Z,32.60
2018-08-07T18:25:08.394Z,32.50
2018-08-07T18:27:35.964Z,32.50
2018-08-07T18:30:05.016Z,32.40
2018-08-07T18:32:32.724Z,32.40
2018-08-07T18:35:00.217Z,32.40
2018-08-07T18:37:27.681Z,32.30
2018-08-07T18:39:55.371Z,32.40
2018-08-07T18:42:22.797Z,32.20
2018-08-07T18:44:50.236Z,32.20
2018-08-07T18:47:17.705Z,32.10
2018-08-07T18:49:45.274Z,32.00
2018-08-07T18:52:12.732Z,31.90
2018-08-07T18:54:40.348Z,31.90
2018-08-07T18:57:07.849Z,31.80
2018-08-07T18:59:35.420Z,31.70
2018-08-07T19:02:02.876Z,31.70
2018-08-07T19:04:30.567Z,31.70
2018-08-07T19:06:58.003Z,31.70
2018-08-07T19:09:25.491Z,31.50
2018-08-07T19:12:30.509Z,31.40
2018-08-07T19:14:58.140Z,31.40
2018-08-07T19:17:25.700Z,31.50
2018-08-07T19:19:53.365Z,31.40
2018-08-07T19:22:20.821Z,31.40
2018-08-07T19:24:48.755Z,31.40
2018-08-07T19:27:16.340Z,31.20
2018-08-07T19:29:44.109Z,31.10
2018-08-07T19:32:11.747Z,31.00
2018-08-07T19:34:39.328Z,30.80
2018-08-07T19:37:06.905Z,30.60
2018-08-07T19:39:34.582Z,30.50
2018-08-07T19:42:02.356Z,30.50
2018-08-07T19:44:29.994Z,30.50
2018-08-07T19:46:57.436Z,30.40
2018-08-07T19:49:24.929Z,30.40
2018-08-07T19:51:52.465Z,30.20
2018-08-07T19:54:20.140Z,30.00
2018-08-07T19:56:47.576Z,29.70
2018-08-07T19:59:15.253Z,29.50
2018-08-07T20:01:42.900Z,29.60
2018-08-07T20:04:10.474Z,29.50
2018-08-07T20:06:38.261Z,29.50
2018-08-07T20:09:07.083Z,29.50
2018-08-07T20:11:34.707Z,29.50
2018-08-07T20:14:02.381Z,29.40
2018-08-07T20:16:30.001Z,29.30
2018-08-07T20:18:57.480Z,29.20
2018-08-07T20:21:24.941Z,29.10
2018-08-07T20:23:53.578Z,29.10
2018-08-07T20:26:21.089Z,29.20
2018-08-07T20:28:48.540Z,29.20
2018-08-07T20:31:16.161Z,29.20
2018-08-07T20:33:43.732Z,29.20
2018-08-07T20:36:11.559Z,29.00
2018-08-07T20:38:39.160Z,28.90
2018-08-07T20:41:06.654Z,28.80
2018-08-07T20:43:34.309Z,28.80
2018-08-07T20:46:01.773Z,28.70
2018-08-07T20:48:29.209Z,28.70
2018-08-07T20:50:56.710Z,28.60
2018-08-07T20:53:24.309Z,28.50
2018-08-07T20:55:51.765Z,28.50
2018-08-07T20:58:19.356Z,28.50
2018-08-07T21:00:46.790Z,28.30
2018-08-07T21:03:14.242Z,28.20
2018-08-07T21:05:41.697Z,28.20
2018-08-07T21:08:09.198Z,28.10
2018-08-07T21:10:36.601Z,28.00
2018-08-07T21:13:04.059Z,27.80
2018-08-07T21:15:31.569Z,27.80
2018-08-07T21:17:58.967Z,27.60
2018-08-07T21:20:26.454Z,27.60
2018-08-07T21:22:53.996Z,27.50
2018-08-07T21:25:22.257Z,27.40
2018-08-07T21:27:51.646Z,27.40
2018-08-07T21:30:21.448Z,27.20
2018-08-07T21:32:48.919Z,27.20
2018-08-07T21:35:16.360Z,27.30
2018-08-07T21:37:43.821Z,27.30
2018-08-07T21:40:12.613Z,27.30
2018-08-07T21:42:40.584Z,27.20
2018-08-07T21:45:08.241Z,27.10
2018-08-07T21:47:36.196Z,27.00
2018-08-07T21:50:04.257Z,26.90
2018-08-07T21:52:31.914Z,26.90
2018-08-07T21:54:59.408Z,26.70
2018-08-07T21:57:26.848Z,26.50
2018-08-07T21:59:54.292Z,26.60
2018-08-07T22:02:22.854Z,26.60
2018-08-07T22:04:50.379Z,26.50
2018-08-07T22:07:17.873Z,26.40
2018-08-07T22:09:45.317Z,26.40
2018-08-07T22:12:12.782Z,26.40
2018-08-07T22:14:40.325Z,26.50
2018-08-07T22:17:07.781Z,26.40
2018-08-07T22:19:35.307Z,26.50
2018-08-07T22:22:02.789Z,26.60
2018-08-07T22:24:30.240Z,26.60
2018-08-07T22:26:57.680Z,26.70
2018-08-07T22:29:25.138Z,26.70
2018-08-07T22:31:52.585Z,26.80
2018-08-07T22:34:20.050Z,26.80
2018-08-07T22:36:47.532Z,26.80
2018-08-07T22:39:15.109Z,26.90
2018-08-07T22:41:42.643Z,26.90
2018-08-07T22:44:10.101Z,26.90
2018-08-07T22:46:37.544Z,26.90
2018-08-07T22:49:05.156Z,26.90
2018-08-07T22:51:32.460Z,26.80
2018-08-07T22:54:00.057Z,26.90
2018-08-07T22:56:27.544Z,26.90
2018-08-07T22:58:54.982Z,26.90
2018-08-07T23:01:22.430Z,26.90
2018-08-07T23:03:49.897Z,26.90
2018-08-07T23:06:17.367Z,26.80
2018-08-07T23:08:44.848Z,26.80
2018-08-07T23:11:12.308Z,26.90
2018-08-07T23:13:39.755Z,26.80
2018-08-07T23:16:07.260Z,26.70
2018-08-07T23:18:34.740Z,26.50
2018-08-07T23:21:02.213Z,26.50
2018-08-07T23:23:29.732Z,26.50
2018-08-07T23:25:57.208Z,26.40
2018-08-07T23:28:24.636Z,26.40
2018-08-07T23:30:52.081Z,26.40
2018-08-07T23:33:19.521Z,26.40
2018-08-07T23:35:46.970Z,26.50
2018-08-07T23:38:14.486Z,26.50
2018-08-07T23:40:42.061Z,26.50
2018-08-07T23:43:09.504Z,26.40
2018-08-07T23:45:36.956Z,26.30
2018-08-07T23:48:04.397Z,26.20
2018-08-07T23:50:31.860Z,26.10
2018-08-07T23:52:59.320Z,26.00
2018-08-07T23:55:26.797Z,26.00
2018-08-07T23:57:54.244Z,26.00
